createdAt,value
2018-01-21T00:00:33.310Z,26
2018-01-21T00:01:35.499Z,26
2018-01-21T00:02:35.592Z,26
2018-01-21T00:03:33.796Z,26
2018-01-21T00:04:33.613Z,26
2018-01-21T00:05:33.649Z,26
2018-01-21T00:06:35.865Z,26
2018-01-21T00:07:33.963Z,26
2018-01-21T00:08:35.971Z,26
2018-01-21T00:09:33.885Z,26
2018-01-21T00:10:35.928Z,26
2018-01-21T00:11:34.235Z,26
2018-01-21T00:12:36.230Z,26
2018-01-21T00:13:36.098Z,26
2018-01-21T00:14:36.315Z,26
2018-01-21T00:15:36.322Z,26
2018-01-21T00:16:36.357Z,26
2018-01-21T00:17:34.308Z,26
2018-01-21T00:18:36.456Z,26
2018-01-21T00:19:34.350Z,26
2018-01-21T00:20:34.402Z,26
2018-01-21T00:21:36.607Z,26
2018-01-21T00:22:34.537Z,26
2018-01-21T00:23:34.535Z,26
2018-01-21T00:24:34.605Z,26
2018-01-21T00:25:36.820Z,26
2018-01-21T00:26:34.782Z,26
2018-01-21T00:27:36.804Z,26
2018-01-21T00:28:35.161Z,26
2018-01-21T00:29:34.962Z,26
2018-01-21T00:30:35.019Z,26
2018-01-21T00:31:35.021Z,26
2018-01-21T00:32:35.073Z,26
2018-01-21T00:33:35.016Z,26
2018-01-21T00:34:35.283Z,26
2018-01-21T00:35:35.158Z,26
2018-01-21T00:36:35.222Z,26.1
2018-01-21T00:37:37.450Z,26
2018-01-21T00:38:37.231Z,26
2018-01-21T00:39:37.504Z,26
2018-01-21T00:40:35.436Z,26
2018-01-21T00:41:37.680Z,26
2018-01-21T00:42:35.591Z,26
2018-01-21T00:43:37.816Z,26
2018-01-21T00:44:35.695Z,26
2018-01-21T00:45:35.915Z,26
2018-01-21T00:46:35.919Z,26
2018-01-21T00:47:36.087Z,26
2018-01-21T00:48:35.890Z,26
2018-01-21T00:49:37.939Z,26
2018-01-21T00:50:36.277Z,26
2018-01-21T00:51:36.300Z,26
2018-01-21T00:52:36.306Z,26
2018-01-21T00:53:38.285Z,26
2018-01-21T00:54:38.323Z,26
2018-01-21T00:55:38.371Z,26
2018-01-21T00:56:36.298Z,26
2018-01-21T00:57:36.557Z,26
2018-01-21T00:58:36.438Z,26
2018-01-21T00:59:36.481Z,26
2018-01-21T01:00:38.652Z,26
2018-01-21T01:01:36.525Z,26
2018-01-21T01:02:38.701Z,26
2018-01-21T01:03:38.585Z,26
2018-01-21T01:04:36.741Z,26
2018-01-21T01:05:38.943Z,26
2018-01-21T01:06:39.025Z,26
2018-01-21T01:07:39.097Z,26.1
2018-01-21T01:08:39.117Z,26
2018-01-21T01:09:39.222Z,26
2018-01-21T01:10:37.258Z,26
2018-01-21T01:11:37.186Z,26.1
2018-01-21T01:12:39.103Z,26.1
2018-01-21T01:13:37.467Z,26
2018-01-21T01:14:37.492Z,26.1
2018-01-21T01:15:37.571Z,26.1
2018-01-21T01:16:37.474Z,26
2018-01-21T01:17:37.717Z,26.1
2018-01-21T01:18:37.752Z,26
2018-01-21T01:19:39.725Z,26
2018-01-21T01:20:37.941Z,26
2018-01-21T01:21:37.812Z,26
2018-01-21T01:22:40.084Z,26
2018-01-21T01:23:37.909Z,26
2018-01-21T01:24:37.939Z,26
2018-01-21T01:25:37.945Z,26
2018-01-21T01:26:38.260Z,26
2018-01-21T01:27:38.144Z,26
2018-01-21T01:28:38.206Z,26
2018-01-21T01:29:38.494Z,26
2018-01-21T01:30:38.313Z,26
2018-01-21T01:31:38.274Z,26
2018-01-21T01:32:40.477Z,26
2018-01-21T01:33:40.535Z,26
2018-01-21T01:34:40.563Z,26
2018-01-21T01:35:40.545Z,26
2018-01-21T01:36:40.617Z,26
2018-01-21T01:37:38.536Z,26
2018-01-21T01:38:38.526Z,26.1
2018-01-21T01:39:40.504Z,26
2018-01-21T01:40:38.637Z,26
2018-01-21T01:41:40.788Z,26.1
2018-01-21T01:42:38.869Z,26
2018-01-21T01:43:38.777Z,26
2018-01-21T01:44:38.986Z,26
2018-01-21T01:45:39.086Z,26
2018-01-21T01:46:41.076Z,26
2018-01-21T01:47:39.150Z,26
2018-01-21T01:48:38.927Z,26.1
2018-01-21T01:49:38.996Z,26.1
2018-01-21T01:50:38.963Z,26
2018-01-21T01:51:39.197Z,26
2018-01-21T01:52:39.092Z,26
2018-01-21T01:53:41.232Z,26
2018-01-21T01:54:39.371Z,26
2018-01-21T01:55:41.048Z,26
2018-01-21T01:56:41.382Z,26
2018-01-21T01:57:39.218Z,26
2018-01-21T01:58:39.254Z,26.1
2018-01-21T01:59:41.475Z,26
2018-01-21T02:00:39.397Z,26.1
2018-01-21T02:01:41.332Z,26.1
2018-01-21T02:02:41.562Z,26
2018-01-21T02:03:39.496Z,26
2018-01-21T02:04:39.528Z,26
2018-01-21T02:05:41.453Z,26
2018-01-21T02:06:41.792Z,26
2018-01-21T02:07:39.630Z,26
2018-01-21T02:08:41.804Z,26
2018-01-21T02:09:39.716Z,26
2018-01-21T02:10:41.839Z,26
2018-01-21T02:11:39.606Z,26
2018-01-21T02:12:39.666Z,26
2018-01-21T02:13:41.590Z,26
2018-01-21T02:14:39.762Z,26
2018-01-21T02:15:39.789Z,26
2018-01-21T02:16:39.806Z,26
2018-01-21T02:17:39.876Z,26
2018-01-21T02:18:39.912Z,26
2018-01-21T02:19:39.917Z,26.1
2018-01-21T02:20:40.028Z,26
2018-01-21T02:21:41.984Z,26
2018-01-21T02:22:40.105Z,26
2018-01-21T02:23:40.171Z,26.1
2018-01-21T02:24:40.210Z,26.1
2018-01-21T02:25:40.329Z,26.1
2018-01-21T02:26:40.320Z,26.1
2018-01-21T02:27:42.191Z,26
2018-01-21T02:28:40.258Z,26
2018-01-21T02:29:40.289Z,26
2018-01-21T02:30:40.322Z,26
2018-01-21T02:31:42.245Z,26
2018-01-21T02:32:40.390Z,26
2018-01-21T02:33:42.294Z,26
2018-01-21T02:34:40.468Z,26
2018-01-21T02:35:40.549Z,26
2018-01-21T02:36:40.689Z,26
2018-01-21T02:37:41.048Z,26
2018-01-21T02:38:43.021Z,26
2018-01-21T02:39:40.873Z,26
2018-01-21T02:40:40.934Z,26
2018-01-21T02:41:40.991Z,26
2018-01-21T02:42:41.007Z,26
2018-01-21T02:43:41.277Z,26
2018-01-21T02:44:43.425Z,26
2018-01-21T02:45:41.137Z,26.1
2018-01-21T02:46:43.342Z,26
2018-01-21T02:47:41.504Z,26.1
2018-01-21T02:48:43.221Z,26
2018-01-21T02:49:43.472Z,26.1
2018-01-21T02:50:41.647Z,26.1
2018-01-21T02:51:41.664Z,26.1
2018-01-21T02:52:41.487Z,26.1
2018-01-21T02:53:41.541Z,26.1
2018-01-21T02:54:41.873Z,26.1
2018-01-21T02:55:43.881Z,26.1
2018-01-21T02:56:43.771Z,26.1
2018-01-21T02:57:44.039Z,26.1
2018-01-21T02:58:42.196Z,26.1
2018-01-21T02:59:42.037Z,26.1
2018-01-21T03:00:44.570Z,26.1
2018-01-21T03:01:44.256Z,26.1
2018-01-21T03:02:42.187Z,26.1
2018-01-21T03:03:42.372Z,26.1
2018-01-21T03:04:44.870Z,26.1
2018-01-21T03:05:44.388Z,26.1
2018-01-21T03:06:42.305Z,26.1
2018-01-21T03:07:42.515Z,26.1
2018-01-21T03:08:44.529Z,26.1
2018-01-21T03:09:44.539Z,26.1
2018-01-21T03:10:44.383Z,26.1
2018-01-21T03:11:44.670Z,26.1
2018-01-21T03:12:42.532Z,26.1
2018-01-21T03:13:44.492Z,26
2018-01-21T03:14:44.528Z,26.1
2018-01-21T03:15:44.589Z,26.1
2018-01-21T03:16:44.813Z,26
2018-01-21T03:17:42.997Z,26
2018-01-21T03:18:42.796Z,26
2018-01-21T03:19:42.851Z,26.1
2018-01-21T03:20:42.914Z,26.1
2018-01-21T03:21:42.952Z,26.1
2018-01-21T03:22:45.588Z,26.1
2018-01-21T03:23:45.881Z,26
2018-01-21T03:24:45.268Z,26.1
2018-01-21T03:25:45.311Z,26.1
2018-01-21T03:26:45.305Z,26.1
2018-01-21T03:27:43.999Z,26.1
2018-01-21T03:28:45.377Z,26.1
2018-01-21T03:29:45.438Z,26.1
2018-01-21T03:30:43.294Z,26.1
2018-01-21T03:31:43.588Z,26.1
2018-01-21T03:32:43.445Z,26.1
2018-01-21T03:33:45.646Z,26.1
2018-01-21T03:34:43.555Z,26.1
2018-01-21T03:35:45.688Z,26.1
2018-01-21T03:36:43.599Z,26.1
2018-01-21T03:37:43.851Z,26
2018-01-21T03:38:44.415Z,26
2018-01-21T03:39:45.682Z,26.1
2018-01-21T03:40:47.229Z,26
2018-01-21T03:41:43.919Z,26
2018-01-21T03:42:45.904Z,26
2018-01-21T03:43:44.497Z,26
2018-01-21T03:44:45.880Z,26
2018-01-21T03:45:44.653Z,26
2018-01-21T03:46:45.961Z,26
2018-01-21T03:47:44.606Z,26
2018-01-21T03:48:44.187Z,26
2018-01-21T03:49:46.369Z,26
2018-01-21T03:50:44.893Z,26
2018-01-21T03:51:46.185Z,26
2018-01-21T03:52:44.363Z,26
2018-01-21T03:53:44.329Z,26
2018-01-21T03:54:44.352Z,26.1
2018-01-21T03:55:44.651Z,26
2018-01-21T03:56:44.546Z,26
2018-01-21T03:57:44.640Z,26
2018-01-21T03:58:46.658Z,26.1
2018-01-21T03:59:44.949Z,26.1
2018-01-21T04:00:44.851Z,26
2018-01-21T04:01:47.062Z,26.1
2018-01-21T04:02:45.152Z,26
2018-01-21T04:03:45.268Z,26
2018-01-21T04:04:45.140Z,26
2018-01-21T04:05:45.430Z,26
2018-01-21T04:06:47.455Z,26
2018-01-21T04:07:47.414Z,26
2018-01-21T04:08:45.498Z,26.1
2018-01-21T04:09:45.340Z,26
2018-01-21T04:10:47.573Z,26
2018-01-21T04:11:45.687Z,26
2018-01-21T04:12:45.740Z,26
2018-01-21T04:13:47.546Z,26
2018-01-21T04:14:47.597Z,26.1
2018-01-21T04:15:45.923Z,26.1
2018-01-21T04:16:45.789Z,26
2018-01-21T04:17:46.045Z,26
2018-01-21T04:18:48.022Z,26.1
2018-01-21T04:19:48.090Z,26.1
2018-01-21T04:20:45.956Z,26
2018-01-21T04:21:48.119Z,26
2018-01-21T04:22:46.061Z,26
2018-01-21T04:23:46.168Z,26
2018-01-21T04:24:48.062Z,26
2018-01-21T04:25:46.176Z,26
2018-01-21T04:26:48.329Z,26
2018-01-21T04:27:48.177Z,26
2018-01-21T04:28:46.344Z,26
2018-01-21T04:29:48.517Z,26
2018-01-21T04:30:46.433Z,26
2018-01-21T04:31:46.505Z,26
2018-01-21T04:32:46.549Z,26
2018-01-21T04:33:46.829Z,26
2018-01-21T04:34:46.716Z,26.1
2018-01-21T04:35:46.961Z,26.1
2018-01-21T04:36:47.051Z,26.1
2018-01-21T04:37:46.821Z,26.1
2018-01-21T04:38:46.865Z,26.1
2018-01-21T04:39:46.958Z,26.1
2018-01-21T04:40:48.882Z,26.1
2018-01-21T04:41:47.288Z,26.1
2018-01-21T04:42:47.279Z,26
2018-01-21T04:43:49.237Z,26
2018-01-21T04:44:47.154Z,26
2018-01-21T04:45:49.368Z,26
2018-01-21T04:46:49.795Z,26
2018-01-21T04:47:47.509Z,26
2018-01-21T04:48:47.301Z,26
2018-01-21T04:49:49.494Z,26
2018-01-21T04:50:49.569Z,26
2018-01-21T04:51:47.469Z,26
2018-01-21T04:52:47.481Z,26
2018-01-21T04:53:47.821Z,26
2018-01-21T04:54:47.848Z,26
2018-01-21T04:55:47.662Z,26
2018-01-21T04:56:47.748Z,26.1
2018-01-21T04:57:49.704Z,26.1
2018-01-21T04:58:47.909Z,26.1
2018-01-21T04:59:47.903Z,26.1
2018-01-21T05:00:50.093Z,26.1
2018-01-21T05:01:48.198Z,26.1
2018-01-21T05:02:50.193Z,26
2018-01-21T05:03:48.309Z,26
2018-01-21T05:04:48.188Z,26
2018-01-21T05:05:50.333Z,26
2018-01-21T05:06:48.440Z,26
2018-01-21T05:07:48.522Z,26
2018-01-21T05:08:48.578Z,26
2018-01-21T05:09:48.406Z,26
2018-01-21T05:10:48.379Z,26
2018-01-21T05:11:50.589Z,26
2018-01-21T05:12:50.710Z,26
2018-01-21T05:13:48.820Z,26
2018-01-21T05:14:48.636Z,26
2018-01-21T05:15:48.939Z,26.1
2018-01-21T05:16:48.908Z,26.1
2018-01-21T05:17:50.965Z,26
2018-01-21T05:18:48.798Z,26.1
2018-01-21T05:19:48.888Z,26
2018-01-21T05:20:48.954Z,26
2018-01-21T05:21:48.993Z,26
2018-01-21T05:22:49.291Z,26
2018-01-21T05:23:49.348Z,26
2018-01-21T05:24:51.327Z,26
2018-01-21T05:25:49.218Z,26
2018-01-21T05:26:49.238Z,26
2018-01-21T05:27:49.295Z,26
2018-01-21T05:28:51.479Z,26
2018-01-21T05:29:51.450Z,26
2018-01-21T05:30:49.422Z,26
2018-01-21T05:31:51.591Z,26
2018-01-21T05:32:51.431Z,26
2018-01-21T05:33:49.773Z,26
2018-01-21T05:34:49.575Z,26
2018-01-21T05:35:49.684Z,26
2018-01-21T05:36:49.720Z,26
2018-01-21T05:37:51.932Z,26.1
2018-01-21T05:38:49.901Z,26
2018-01-21T05:39:52.029Z,26
2018-01-21T05:40:49.904Z,26
2018-01-21T05:41:49.970Z,26
2018-01-21T05:42:50.002Z,26
2018-01-21T05:43:51.968Z,26
2018-01-21T05:44:52.238Z,26
2018-01-21T05:45:50.168Z,26
2018-01-21T05:46:50.248Z,26
2018-01-21T05:47:50.280Z,26
2018-01-21T05:48:50.563Z,26
2018-01-21T05:49:50.410Z,26
2018-01-21T05:50:50.474Z,26
2018-01-21T05:51:50.592Z,26
2018-01-21T05:52:52.578Z,26
2018-01-21T05:53:50.625Z,26
2018-01-21T05:54:52.893Z,26
2018-01-21T05:55:50.904Z,26
2018-01-21T05:56:50.933Z,26
2018-01-21T05:57:52.723Z,26
2018-01-21T05:58:53.005Z,26
2018-01-21T05:59:53.050Z,26
2018-01-21T06:00:50.950Z,26
2018-01-21T06:01:51.214Z,26
2018-01-21T06:02:53.144Z,26
2018-01-21T06:03:51.351Z,26
2018-01-21T06:04:51.146Z,26
2018-01-21T06:05:51.372Z,26
2018-01-21T06:06:51.442Z,26
2018-01-21T06:07:51.289Z,26
2018-01-21T06:08:51.295Z,26
2018-01-21T06:09:51.354Z,26
2018-01-21T06:10:51.551Z,26
2018-01-21T06:11:51.446Z,26
2018-01-21T06:12:51.727Z,26
2018-01-21T06:13:51.571Z,26
2018-01-21T06:14:53.762Z,26
2018-01-21T06:15:51.722Z,26
2018-01-21T06:16:53.916Z,26
2018-01-21T06:17:51.840Z,26
2018-01-21T06:18:52.077Z,26
2018-01-21T06:19:53.804Z,26
2018-01-21T06:20:51.925Z,26
2018-01-21T06:21:51.977Z,26
2018-01-21T06:22:54.150Z,26
2018-01-21T06:23:52.044Z,26
2018-01-21T06:24:52.301Z,26
2018-01-21T06:25:52.314Z,26
2018-01-21T06:26:52.151Z,26
2018-01-21T06:27:52.275Z,26
2018-01-21T06:28:52.523Z,26
2018-01-21T06:29:52.396Z,26
2018-01-21T06:30:52.668Z,26
2018-01-21T06:31:54.413Z,26
2018-01-21T06:32:54.642Z,26
2018-01-21T06:33:54.759Z,26
2018-01-21T06:34:52.912Z,26
2018-01-21T06:35:52.981Z,26
2018-01-21T06:36:52.899Z,26
2018-01-21T06:37:54.819Z,26
2018-01-21T06:38:53.043Z,26
2018-01-21T06:39:53.119Z,26
2018-01-21T06:40:53.384Z,26
2018-01-21T06:41:54.089Z,26
2018-01-21T06:42:55.168Z,26
2018-01-21T06:43:53.326Z,26
2018-01-21T06:44:53.366Z,26
2018-01-21T06:45:55.901Z,26
2018-01-21T06:46:53.453Z,26
2018-01-21T06:47:53.571Z,26
2018-01-21T06:48:55.486Z,26
2018-01-21T06:49:53.623Z,26
2018-01-21T06:50:55.591Z,26
2018-01-21T06:51:53.725Z,26
2018-01-21T06:52:53.728Z,26
2018-01-21T06:53:53.790Z,26
2018-01-21T06:54:55.925Z,26
2018-01-21T06:55:56.014Z,26
2018-01-21T06:56:54.140Z,26
2018-01-21T06:57:56.057Z,26
2018-01-21T06:58:53.959Z,26
2018-01-21T06:59:54.049Z,26
2018-01-21T07:00:56.209Z,26
2018-01-21T07:01:56.258Z,26
2018-01-21T07:02:56.338Z,26
2018-01-21T07:03:54.205Z,26
2018-01-21T07:04:56.226Z,26
2018-01-21T07:05:56.391Z,26
2018-01-21T07:06:54.303Z,26
2018-01-21T07:07:54.427Z,26
2018-01-21T07:08:54.491Z,26
2018-01-21T07:09:54.677Z,26
2018-01-21T07:10:56.618Z,26
2018-01-21T07:11:54.499Z,26
2018-01-21T07:12:56.462Z,26
2018-01-21T07:13:54.805Z,26
2018-01-21T07:14:56.552Z,26
2018-01-21T07:15:54.702Z,26
2018-01-21T07:16:54.937Z,26
2018-01-21T07:17:54.964Z,26
2018-01-21T07:18:55.055Z,25.9
2018-01-21T07:19:55.142Z,26
2018-01-21T07:20:57.126Z,25.9
2018-01-21T07:21:55.270Z,26
2018-01-21T07:22:55.077Z,26
2018-01-21T07:23:57.202Z,26
2018-01-21T07:24:55.093Z,26
2018-01-21T07:25:57.033Z,26
2018-01-21T07:26:55.144Z,26
2018-01-21T07:27:55.342Z,26
2018-01-21T07:28:55.172Z,26
2018-01-21T07:29:55.258Z,25.9
2018-01-21T07:30:57.254Z,26
2018-01-21T07:31:55.400Z,26
2018-01-21T07:32:57.557Z,26
2018-01-21T07:33:55.483Z,26
2018-01-21T07:34:55.535Z,25.9
2018-01-21T07:35:55.830Z,26
2018-01-21T07:36:57.820Z,26
2018-01-21T07:37:55.777Z,26
2018-01-21T07:38:57.989Z,26
2018-01-21T07:39:57.803Z,26
2018-01-21T07:40:58.082Z,26
2018-01-21T07:41:56.188Z,26
2018-01-21T07:42:58.664Z,26
2018-01-21T07:43:56.208Z,26
2018-01-21T07:44:56.235Z,26
2018-01-21T07:45:57.938Z,25.9
2018-01-21T07:46:56.026Z,26
2018-01-21T07:47:58.241Z,26
2018-01-21T07:48:58.352Z,26
2018-01-21T07:49:56.207Z,26
2018-01-21T07:50:56.267Z,26
2018-01-21T07:51:58.463Z,26
2018-01-21T07:52:58.539Z,26
2018-01-21T07:53:56.676Z,26
2018-01-21T07:54:56.560Z,26
2018-01-21T07:55:56.612Z,25.9
2018-01-21T07:56:56.837Z,26
2018-01-21T07:57:56.837Z,26
2018-01-21T07:58:56.708Z,26
2018-01-21T07:59:56.659Z,26
2018-01-21T08:01:00.019Z,26
2018-01-21T08:01:56.730Z,26
2018-01-21T08:02:57.038Z,26
2018-01-21T08:03:56.866Z,26
2018-01-21T08:04:58.913Z,26
2018-01-21T08:05:59.138Z,26
2018-01-21T08:06:57.239Z,26
2018-01-21T08:07:59.278Z,26
2018-01-21T08:08:57.567Z,26
2018-01-21T08:09:57.497Z,25.9
2018-01-21T08:10:59.424Z,25.9
2018-01-21T08:11:59.276Z,25.9
2018-01-21T08:12:57.395Z,25.9
2018-01-21T08:13:57.425Z,25.9
2018-01-21T08:14:57.463Z,25.9
2018-01-21T08:15:57.486Z,25.9
2018-01-21T08:16:59.491Z,25.9
2018-01-21T08:17:57.620Z,25.9
2018-01-21T08:18:57.862Z,25.9
2018-01-21T08:19:59.870Z,25.9
2018-01-21T08:20:57.725Z,25.9
2018-01-21T08:21:57.790Z,25.9
2018-01-21T08:22:57.780Z,25.9
2018-01-21T08:24:00.008Z,25.9
2018-01-21T08:24:59.862Z,25.9
2018-01-21T08:25:58.216Z,25.9
2018-01-21T08:26:57.976Z,25.9
2018-01-21T08:28:00.162Z,25.9
2018-01-21T08:28:58.237Z,25.9
2018-01-21T08:30:00.028Z,25.9
2018-01-21T08:30:58.383Z,25.9
2018-01-21T08:32:00.364Z,25.9
2018-01-21T08:32:58.290Z,25.9
2018-01-21T08:34:00.491Z,25.9
2018-01-21T08:35:00.549Z,25.9
2018-01-21T08:36:00.606Z,25.9
2018-01-21T08:36:58.729Z,25.9
2018-01-21T08:37:58.596Z,25.9
2018-01-21T08:38:58.897Z,25.9
2018-01-21T08:40:02.146Z,25.8
2018-01-21T08:41:00.723Z,25.8
2018-01-21T08:42:00.828Z,25.8
2018-01-21T08:42:59.151Z,25.8
2018-01-21T08:44:01.092Z,25.8
2018-01-21T08:44:59.177Z,25.8
2018-01-21T08:46:01.121Z,25.8
2018-01-21T08:47:01.156Z,25.8
2018-01-21T08:48:01.262Z,25.8
2018-01-21T08:49:01.303Z,25.8
2018-01-21T08:50:01.387Z,25.8
2018-01-21T08:50:59.513Z,25.8
2018-01-21T08:52:02.095Z,25.7
2018-01-21T08:52:59.608Z,25.7
2018-01-21T08:54:01.589Z,25.6
2018-01-21T08:55:01.640Z,25.6
2018-01-21T08:56:01.659Z,25.5
2018-01-21T08:56:59.809Z,25.5
2018-01-21T08:57:59.953Z,25.4
2018-01-21T08:59:01.630Z,25.4
2018-01-21T09:00:01.740Z,25.3
2018-01-21T09:00:59.756Z,25.3
2018-01-21T09:01:59.810Z,25.3
2018-01-21T09:02:59.805Z,25.3
2018-01-21T09:04:01.774Z,25.3
2018-01-21T09:05:01.883Z,25.2
2018-01-21T09:05:59.973Z,25.2
2018-01-21T09:07:00.247Z,25.2
2018-01-21T09:08:00.172Z,25.3
2018-01-21T09:09:00.475Z,25.3
2018-01-21T09:10:02.407Z,25.3
2018-01-21T09:11:02.410Z,25.3
2018-01-21T09:12:00.315Z,25.3
2018-01-21T09:13:02.331Z,25.3
2018-01-21T09:14:00.404Z,25.3
2018-01-21T09:15:00.724Z,25.3
2018-01-21T09:16:00.778Z,25.4
2018-01-21T09:17:00.869Z,25.4
2018-01-21T09:18:02.776Z,25.4
2018-01-21T09:19:00.740Z,25.4
2018-01-21T09:20:00.791Z,25.4
2018-01-21T09:21:02.990Z,25.4
2018-01-21T09:22:00.856Z,25.4
2018-01-21T09:23:00.877Z,25.4
2018-01-21T09:24:03.054Z,25.4
2018-01-21T09:25:00.970Z,25.4
2018-01-21T09:26:01.777Z,25.4
2018-01-21T09:27:02.995Z,25.4
2018-01-21T09:28:03.316Z,25.4
2018-01-21T09:29:03.912Z,25.4
2018-01-21T09:30:03.237Z,25.4
2018-01-21T09:31:01.332Z,25.4
2018-01-21T09:32:01.885Z,25.4
2018-01-21T09:33:01.338Z,25.4
2018-01-21T09:34:03.325Z,25.4
2018-01-21T09:35:03.665Z,25.4
2018-01-21T09:36:03.696Z,25.5
2018-01-21T09:37:02.324Z,25.5
2018-01-21T09:38:01.578Z,25.5
2018-01-21T09:39:03.857Z,25.5
2018-01-21T09:40:03.898Z,25.5
2018-01-21T09:41:03.915Z,25.5
2018-01-21T09:42:03.332Z,25.5
2018-01-21T09:43:01.860Z,25.5
2018-01-21T09:44:02.217Z,25.5
2018-01-21T09:45:03.957Z,25.5
2018-01-21T09:46:02.131Z,25.5
2018-01-21T09:47:04.332Z,25.5
2018-01-21T09:48:03.039Z,25.5
2018-01-21T09:49:05.205Z,25.5
2018-01-21T09:50:04.526Z,25.4
2018-01-21T09:51:02.515Z,25.4
2018-01-21T09:52:04.620Z,25.4
2018-01-21T09:53:04.748Z,25.4
2018-01-21T09:54:03.628Z,25.5
2018-01-21T09:55:02.713Z,25.5
2018-01-21T09:56:03.041Z,25.5
2018-01-21T09:57:04.932Z,25.5
2018-01-21T09:58:03.009Z,25.5
2018-01-21T09:59:02.809Z,25.5
2018-01-21T10:00:03.086Z,25.5
2018-01-21T10:01:02.933Z,25.4
2018-01-21T10:02:03.109Z,25.4
2018-01-21T10:03:05.108Z,25.4
2018-01-21T10:04:03.054Z,25.4
2018-01-21T10:05:03.372Z,25.4
2018-01-21T10:06:03.383Z,25.4
2018-01-21T10:07:03.235Z,25.4
2018-01-21T10:08:05.490Z,25.5
2018-01-21T10:09:03.672Z,25.5
2018-01-21T10:10:05.585Z,25.4
2018-01-21T10:11:03.765Z,25.4
2018-01-21T10:12:05.591Z,25.4
2018-01-21T10:13:05.810Z,25.4
2018-01-21T10:14:03.944Z,25.4
2018-01-21T10:15:03.961Z,25.4
2018-01-21T10:16:03.975Z,25.4
2018-01-21T10:17:05.790Z,25.5
2018-01-21T10:18:03.791Z,25.5
2018-01-21T10:19:05.930Z,25.5
2018-01-21T10:20:10.466Z,25.4
2018-01-21T10:21:03.927Z,25.4
2018-01-21T10:22:03.980Z,25.5
2018-01-21T10:23:03.968Z,25.4
2018-01-21T10:24:05.949Z,25.4
2018-01-21T10:25:04.108Z,25.4
2018-01-21T10:26:06.060Z,25.4
2018-01-21T10:27:06.335Z,25.4
2018-01-21T10:28:04.456Z,25.3
2018-01-21T10:29:04.539Z,25.3
2018-01-21T10:30:04.623Z,25.3
2018-01-21T10:31:04.700Z,25.3
2018-01-21T10:32:06.632Z,25.2
2018-01-21T10:33:04.506Z,25.2
2018-01-21T10:34:04.769Z,25.2
2018-01-21T10:35:06.514Z,25.1
2018-01-21T10:36:04.614Z,25.2
2018-01-21T10:37:04.567Z,25.2
2018-01-21T10:38:04.840Z,25.2
2018-01-21T10:39:06.798Z,25.2
2018-01-21T10:40:06.855Z,25.2
2018-01-21T10:41:04.703Z,25.2
2018-01-21T10:42:06.684Z,25.2
2018-01-21T10:43:04.849Z,25.2
2018-01-21T10:44:05.106Z,25.2
2018-01-21T10:45:07.109Z,25.2
2018-01-21T10:46:05.001Z,25.2
2018-01-21T10:47:05.003Z,25.2
2018-01-21T10:48:05.101Z,25.2
2018-01-21T10:49:05.345Z,25.3
2018-01-21T10:50:07.299Z,25.3
2018-01-21T10:51:05.187Z,25.2
2018-01-21T10:52:07.347Z,25.2
2018-01-21T10:53:05.440Z,25.2
2018-01-21T10:54:07.221Z,25.2
2018-01-21T10:55:07.532Z,25.2
2018-01-21T10:56:05.361Z,25.2
2018-01-21T10:57:07.616Z,25.2
2018-01-21T10:58:05.686Z,25.2
2018-01-21T10:59:05.562Z,25.2
2018-01-21T11:00:07.516Z,25.2
2018-01-21T11:01:05.806Z,25.2
2018-01-21T11:02:07.729Z,25.2
2018-01-21T11:03:07.742Z,25.2
2018-01-21T11:04:05.669Z,25.2
2018-01-21T11:05:05.760Z,25.2
2018-01-21T11:06:06.016Z,25.2
2018-01-21T11:07:05.809Z,25.2
2018-01-21T11:08:05.844Z,25.2
2018-01-21T11:09:06.106Z,25.2
2018-01-21T11:10:05.924Z,25.1
2018-01-21T11:11:08.133Z,25.2
2018-01-21T11:12:08.129Z,25.2
2018-01-21T11:13:08.249Z,25.1
2018-01-21T11:14:08.282Z,25.1
2018-01-21T11:15:08.393Z,25.1
2018-01-21T11:16:06.518Z,25.1
2018-01-21T11:17:08.448Z,25.1
2018-01-21T11:18:06.450Z,25.1
2018-01-21T11:19:06.456Z,25.1
2018-01-21T11:20:06.541Z,25.1
2018-01-21T11:21:06.523Z,25.1
2018-01-21T11:22:08.748Z,25.1
2018-01-21T11:23:06.708Z,25.1
2018-01-21T11:24:08.895Z,25.1
2018-01-21T11:25:08.938Z,25
2018-01-21T11:26:06.778Z,25
2018-01-21T11:27:09.040Z,25.1
2018-01-21T11:28:06.919Z,25.1
2018-01-21T11:29:08.882Z,25.1
2018-01-21T11:30:07.212Z,25.1
2018-01-21T11:31:07.259Z,25.1
2018-01-21T11:32:07.121Z,25.1
2018-01-21T11:33:07.357Z,25.1
2018-01-21T11:34:07.285Z,25.1
2018-01-21T11:35:09.405Z,25.1
2018-01-21T11:36:07.612Z,25.1
2018-01-21T11:37:09.570Z,25.1
2018-01-21T11:38:07.452Z,25
2018-01-21T11:39:07.513Z,25
2018-01-21T11:40:09.759Z,25
2018-01-21T11:41:09.640Z,24.9
2018-01-21T11:42:07.981Z,24.9
2018-01-21T11:43:07.867Z,24.8
2018-01-21T11:44:08.141Z,24.8
2018-01-21T11:45:09.970Z,24.7
2018-01-21T11:46:10.247Z,24.7
2018-01-21T11:47:10.779Z,24.7
2018-01-21T11:48:08.141Z,24.7
2018-01-21T11:49:08.206Z,24.7
2018-01-21T11:50:10.392Z,24.8
2018-01-21T11:51:08.283Z,24.8
2018-01-21T11:52:08.529Z,24.8
2018-01-21T11:53:08.578Z,24.8
2018-01-21T11:54:08.399Z,24.8
2018-01-21T11:55:10.614Z,24.8
2018-01-21T11:56:10.638Z,24.8
2018-01-21T11:57:08.777Z,24.8
2018-01-21T11:58:10.793Z,24.8
2018-01-21T11:59:08.936Z,24.7
2018-01-21T12:00:08.750Z,24.6
2018-01-21T12:01:09.049Z,24.5
2018-01-21T12:02:10.845Z,24.5
2018-01-21T12:03:09.181Z,24.4
2018-01-21T12:04:08.992Z,24.4
2018-01-21T12:05:10.930Z,24.4
2018-01-21T12:06:11.169Z,24.4
2018-01-21T12:07:09.013Z,24.4
2018-01-21T12:08:09.275Z,24.3
2018-01-21T12:09:09.310Z,24.3
2018-01-21T12:10:09.148Z,24.3
2018-01-21T12:11:09.418Z,24.2
2018-01-21T12:12:09.249Z,24.2
2018-01-21T12:13:09.382Z,24.2
2018-01-21T12:14:09.579Z,24.2
2018-01-21T12:15:09.690Z,24.2
2018-01-21T12:16:11.602Z,24.3
2018-01-21T12:17:09.752Z,24.3
2018-01-21T12:18:09.800Z,24.3
2018-01-21T12:19:09.677Z,24.4
2018-01-21T12:20:11.811Z,24.4
2018-01-21T12:21:09.978Z,24.5
2018-01-21T12:22:09.868Z,24.5
2018-01-21T12:23:12.021Z,24.5
2018-01-21T12:24:11.851Z,24.6
2018-01-21T12:25:09.952Z,24.6
2018-01-21T12:26:10.162Z,24.6
2018-01-21T12:27:11.924Z,24.6
2018-01-21T12:28:12.156Z,24.7
2018-01-21T12:29:10.011Z,24.7
2018-01-21T12:30:12.234Z,24.7
2018-01-21T12:31:12.237Z,24.7
2018-01-21T12:32:12.024Z,24.7
2018-01-21T12:33:12.349Z,24.7
2018-01-21T12:34:10.196Z,24.7
2018-01-21T12:35:12.405Z,24.7
2018-01-21T12:36:12.448Z,24.6
2018-01-21T12:37:12.521Z,24.6
2018-01-21T12:38:10.361Z,24.6
2018-01-21T12:39:10.387Z,24.5
2018-01-21T12:40:10.651Z,24
2018-01-21T12:41:12.653Z,23.9
2018-01-21T12:42:10.571Z,23.8
2018-01-21T12:43:10.618Z,23.5
2018-01-21T12:44:12.827Z,23.1
2018-01-21T12:45:12.683Z,22.8
2018-01-21T12:46:13.109Z,22.8
2018-01-21T12:47:10.851Z,22.8
2018-01-21T12:48:11.114Z,22.9
2018-01-21T12:49:13.039Z,23
2018-01-21T12:50:12.848Z,23.1
2018-01-21T12:51:11.172Z,23.1
2018-01-21T12:52:10.977Z,23.2
2018-01-21T12:53:11.076Z,23.3
2018-01-21T12:54:13.815Z,23.3
2018-01-21T12:55:11.173Z,23.4
2018-01-21T12:56:11.482Z,23.4
2018-01-21T12:57:11.428Z,23.5
2018-01-21T12:58:11.440Z,23.5
2018-01-21T12:59:11.484Z,23.6
2018-01-21T13:00:11.500Z,23.6
2018-01-21T13:01:11.379Z,23.7
2018-01-21T13:02:11.614Z,23.7
2018-01-21T13:03:11.664Z,23.7
2018-01-21T13:04:11.797Z,23.8
2018-01-21T13:05:11.799Z,23.8
2018-01-21T13:06:11.604Z,23.9
2018-01-21T13:07:11.669Z,23.9
2018-01-21T13:08:11.754Z,24
2018-01-21T13:09:11.806Z,24
2018-01-21T13:10:11.870Z,24
2018-01-21T13:11:11.964Z,24.1
2018-01-21T13:12:12.216Z,24.1
2018-01-21T13:13:14.193Z,24.2
2018-01-21T13:14:12.312Z,24.2
2018-01-21T13:15:12.197Z,24.2
2018-01-21T13:16:12.463Z,24.3
2018-01-21T13:17:14.515Z,24.3
2018-01-21T13:18:12.397Z,24.4
2018-01-21T13:19:12.399Z,24.4
2018-01-21T13:20:12.662Z,24.4
2018-01-21T13:21:14.379Z,24.4
2018-01-21T13:22:12.725Z,24.5
2018-01-21T13:23:14.669Z,24.5
2018-01-21T13:24:14.701Z,24.5
2018-01-21T13:25:12.853Z,24.5
2018-01-21T13:26:14.798Z,24.6
2018-01-21T13:27:12.661Z,24.6
2018-01-21T13:28:14.867Z,24.6
2018-01-21T13:29:14.935Z,24.6
2018-01-21T13:30:12.813Z,24.6
2018-01-21T13:31:13.104Z,24.6
2018-01-21T13:32:13.100Z,24.5
2018-01-21T13:33:12.936Z,24.5
2018-01-21T13:34:13.257Z,24.5
2018-01-21T13:35:15.052Z,24.6
2018-01-21T13:36:13.445Z,24.6
2018-01-21T13:37:13.456Z,24.6
2018-01-21T13:38:13.256Z,24.6
2018-01-21T13:39:15.462Z,24.6
2018-01-21T13:40:13.617Z,24.6
2018-01-21T13:41:13.399Z,24.6
2018-01-21T13:42:15.621Z,24.6
2018-01-21T13:43:15.650Z,24.5
2018-01-21T13:44:13.714Z,24.6
2018-01-21T13:45:13.666Z,24.5
2018-01-21T13:46:13.892Z,24.4